Time;durP1;ratioP1;P1;durP2;ratioP2;P2;SDS_P1;SDS_P2;PMS_P1;PMS_P2;Temp;Humidity;BMP_temperature;BMP_pressure;BME280_temperature;BME280_humidity;BME280_pressure;Samples;Min_cycle;Max_cycle;Signal;HPM_P1;HPM_P2
2024/02/13 00:00:29;;;;;;;8.30;7.45;;;;;;;;;;4908752;29;20099;-72
2024/02/13 00:02:55;;;;;;;9.85;8.95;;;;;;;;;;4909477;29;20043;-72
2024/02/13 00:05:21;;;;;;;9.63;8.15;;;;;;;;;;4910266;29;20683;-72
2024/02/13 00:07:48;;;;;;;10.45;8.10;;;;;;;;;;4909275;29;20040;-72
2024/02/13 00:10:14;;;;;;;8.23;7.40;;;;;;;;;;4908467;29;20048;-73
2024/02/13 00:12:41;;;;;;;9.20;8.35;;;;;;;;;;4910225;29;20032;-73
2024/02/13 00:15:14;;;;;;;8.32;7.57;;;;;;;;;;4911623;29;20044;-73
2024/02/13 00:17:41;;;;;;;11.93;10.82;;;;;;;;;;4909865;29;20051;-72
2024/02/13 00:20:08;;;;;;;10.27;9.27;;;;;;;;;;4908503;29;20096;-73
2024/02/13 00:22:37;;;;;;;7.55;6.80;;;;;;;;;;4910051;29;20111;-72
2024/02/13 00:25:02;;;;;;;8.98;8.07;;;;;;;;;;4908118;29;20043;-72
2024/02/13 00:27:33;;;;;;;11.27;10.27;;;;;;;;;;4909022;29;20507;-71
2024/02/13 00:30:02;;;;;;;9.50;8.60;;;;;;;;;;4892049;29;20040;-72
2024/02/13 00:32:38;;;;;;;10.65;9.55;;;;;;;;;;4910146;29;20035;-71
2024/02/13 00:35:24;;;;;;;9.65;7.43;;;;;;;;;;4912020;29;20040;-72
2024/02/13 00:37:50;;;;;;;11.93;9.40;;;;;;;;;;4900221;29;20044;-73
2024/02/13 00:40:16;;;;;;;11.98;10.73;;;;;;;;;;4893876;29;20128;-72
2024/02/13 00:42:42;;;;;;;10.52;9.57;;;;;;;;;;4894251;29;20145;-72
2024/02/13 00:45:10;;;;;;;12.15;10.10;;;;;;;;;;4893833;29;20084;-72
2024/02/13 00:47:56;;;;;;;11.65;10.55;;;;;;;;;;4892999;28;20044;-72
2024/02/13 00:50:23;;;;;;;15.25;11.90;;;;;;;;;;4894299;29;20040;-73
2024/02/13 00:52:50;;;;;;;8.70;7.43;;;;;;;;;;4892792;29;20032;-72
2024/02/13 00:55:16;;;;;;;8.60;7.68;;;;;;;;;;4893653;29;20048;-72
2024/02/13 00:57:43;;;;;;;8.52;7.53;;;;;;;;;;4888917;29;20067;-71
2024/02/13 01:00:10;;;;;;;8.88;7.38;;;;;;;;;;4888399;29;20123;-72
2024/02/13 01:02:36;;;;;;;10.30;8.48;;;;;;;;;;4893652;29;20203;-71
2024/02/13 01:05:03;;;;;;;10.98;9.73;;;;;;;;;;4893551;29;20056;-72
2024/02/13 01:07:32;;;;;;;10.27;9.30;;;;;;;;;;4916779;29;20134;-71
2024/02/13 01:09:58;;;;;;;10.60;9.63;;;;;;;;;;4895384;29;20139;-72
2024/02/13 01:12:24;;;;;;;12.48;11.25;;;;;;;;;;4895707;29;20118;-71
2024/02/13 01:14:49;;;;;;;11.88;9.27;;;;;;;;;;4912555;29;20123;-71
2024/02/13 01:17:15;;;;;;;14.65;11.05;;;;;;;;;;4910092;29;20072;-71
2024/02/13 01:19:43;;;;;;;14.60;10.95;;;;;;;;;;4912235;29;20064;-71
2024/02/13 01:22:11;;;;;;;11.02;9.30;;;;;;;;;;4911984;29;20506;-71
2024/02/13 01:24:37;;;;;;;10.70;9.60;;;;;;;;;;4912450;29;20032;-71
2024/02/13 01:27:03;;;;;;;11.68;9.55;;;;;;;;;;4911294;29;20047;-72
2024/02/13 01:29:29;;;;;;;13.30;11.82;;;;;;;;;;4912546;29;20042;-72
2024/02/13 01:31:55;;;;;;;9.45;8.45;;;;;;;;;;4912254;29;20048;-72
2024/02/13 01:34:21;;;;;;;13.30;12.00;;;;;;;;;;4912038;29;20526;-71
2024/02/13 01:36:47;;;;;;;17.45;13.68;;;;;;;;;;4925850;29;20154;-72
2024/02/13 01:39:13;;;;;;;13.95;11.25;;;;;;;;;;4912297;29;20802;-72
2024/02/13 01:41:39;;;;;;;10.68;9.65;;;;;;;;;;4913863;29;20044;-71
2024/02/13 01:44:04;;;;;;;15.43;12.45;;;;;;;;;;4903337;29;20040;-71
2024/02/13 01:46:31;;;;;;;16.77;12.30;;;;;;;;;;4892342;29;20120;-70
2024/02/13 01:48:58;;;;;;;17.63;13.60;;;;;;;;;;4893651;29;20042;-71
2024/02/13 01:51:27;;;;;;;13.68;10.98;;;;;;;;;;4907986;29;20044;-71
2024/02/13 01:53:54;;;;;;;19.10;10.25;;;;;;;;;;4893667;29;20035;-71
2024/02/13 01:56:20;;;;;;;16.88;12.02;;;;;;;;;;4891985;29;20063;-71
2024/02/13 01:58:46;;;;;;;18.73;12.10;;;;;;;;;;4893385;29;20040;-70
2024/02/13 02:01:12;;;;;;;20.23;13.85;;;;;;;;;;4925790;29;20050;-72
2024/02/13 02:03:37;;;;;;;22.77;15.45;;;;;;;;;;4912020;29;20054;-72
2024/02/13 02:06:03;;;;;;;14.15;10.07;;;;;;;;;;4911628;29;20040;-72
2024/02/13 02:08:34;;;;;;;17.98;10.98;;;;;;;;;;4893113;29;20044;-71
2024/02/13 02:11:00;;;;;;;17.05;10.68;;;;;;;;;;4892518;29;20132;-70
2024/02/13 02:13:28;;;;;;;17.77;11.85;;;;;;;;;;4892805;29;20033;-71
2024/02/13 02:16:10;;;;;;;14.10;10.52;;;;;;;;;;4892721;29;20453;-74
2024/02/13 02:18:37;;;;;;;14.80;9.75;;;;;;;;;;4875235;29;20084;-74
2024/02/13 02:21:03;;;;;;;16.48;11.18;;;;;;;;;;4891074;29;20099;-74
2024/02/13 02:23:29;;;;;;;15.15;9.98;;;;;;;;;;4907165;29;20527;-75
2024/02/13 02:26:07;;;;;;;18.73;12.57;;;;;;;;;;4905362;29;20534;-74
2024/02/13 02:28:53;;;;;;;18.10;12.43;;;;;;;;;;4892369;29;20044;-74
2024/02/13 02:31:21;;;;;;;16.48;11.65;;;;;;;;;;4892255;29;20077;-74
2024/02/13 02:33:47;;;;;;;17.88;9.25;;;;;;;;;;4891154;29;20052;-74
2024/02/13 02:36:13;;;;;;;23.75;15.48;;;;;;;;;;4894367;29;20052;-74
2024/02/13 02:38:39;;;;;;;17.90;11.40;;;;;;;;;;4891972;29;20045;-76
2024/02/13 02:41:06;;;;;;;16.92;12.50;;;;;;;;;;4875789;29;20071;-76
2024/02/13 02:43:41;;;;;;;18.33;13.00;;;;;;;;;;4906795;29;20060;-76
2024/02/13 02:46:06;;;;;;;16.48;12.65;;;;;;;;;;4892058;29;20045;-76
2024/02/13 02:48:33;;;;;;;15.70;10.23;;;;;;;;;;4909204;29;20521;-75
2024/02/13 02:50:58;;;;;;;21.67;15.77;;;;;;;;;;4910667;29;20036;-76
2024/02/13 02:53:24;;;;;;;18.75;11.88;;;;;;;;;;4926791;29;20032;-75
2024/02/13 02:55:53;;;;;;;18.88;12.73;;;;;;;;;;4926055;29;20059;-74
2024/02/13 02:58:18;;;;;;;17.15;11.77;;;;;;;;;;4909928;29;20036;-75
2024/02/13 03:00:44;;;;;;;16.75;12.05;;;;;;;;;;4910919;29;20050;-75
2024/02/13 03:03:12;;;;;;;13.35;10.32;;;;;;;;;;4909073;29;20123;-75
2024/02/13 03:05:38;;;;;;;18.25;11.13;;;;;;;;;;4910570;29;20118;-75
2024/02/13 03:08:04;;;;;;;17.60;11.13;;;;;;;;;;4923850;29;20040;-75
2024/02/13 03:10:30;;;;;;;15.20;11.10;;;;;;;;;;4910830;29;20043;-76
2024/02/13 03:12:58;;;;;;;23.08;13.55;;;;;;;;;;4910684;29;20407;-75
2024/02/13 03:15:26;;;;;;;24.60;15.15;;;;;;;;;;4910466;29;20072;-74
2024/02/13 03:17:52;;;;;;;18.48;11.05;;;;;;;;;;4909699;29;20455;-75
2024/02/13 03:20:18;;;;;;;23.73;13.93;;;;;;;;;;4922572;29;20048;-74
2024/02/13 03:22:58;;;;;;;16.80;12.82;;;;;;;;;;4890061;29;20091;-74
2024/02/13 03:25:24;;;;;;;24.85;15.80;;;;;;;;;;4891103;29;20131;-74
2024/02/13 03:28:09;;;;;;;17.90;10.38;;;;;;;;;;4889013;29;20054;-74
2024/02/13 03:30:35;;;;;;;23.52;15.95;;;;;;;;;;4894320;29;20036;-76
2024/02/13 03:33:01;;;;;;;25.80;15.60;;;;;;;;;;4910198;29;20487;-75
2024/02/13 03:35:30;;;;;;;22.80;14.07;;;;;;;;;;4921028;29;20462;-77
2024/02/13 03:37:57;;;;;;;25.35;14.48;;;;;;;;;;4909680;29;20104;-77
2024/02/13 03:40:23;;;;;;;23.45;13.70;;;;;;;;;;4909636;29;20067;-78
2024/02/13 03:42:49;;;;;;;26.63;16.23;;;;;;;;;;4911665;29;20036;-77
2024/02/13 03:45:15;;;;;;;19.42;12.88;;;;;;;;;;4909809;29;20582;-76
2024/02/13 03:47:58;;;;;;;18.23;12.07;;;;;;;;;;4910027;29;20044;-76
2024/02/13 03:50:24;;;;;;;18.13;10.77;;;;;;;;;;4911046;29;20036;-77
2024/02/13 03:52:51;;;;;;;17.35;10.35;;;;;;;;;;4915014;29;20063;-77
2024/02/13 03:55:19;;;;;;;19.33;9.93;;;;;;;;;;4926395;29;20711;-77
2024/02/13 03:57:46;;;;;;;21.98;12.65;;;;;;;;;;4894491;29;20087;-77
2024/02/13 04:00:12;;;;;;;22.60;11.93;;;;;;;;;;4912015;29;20535;-77
2024/02/13 04:02:41;;;;;;;27.90;17.98;;;;;;;;;;4914528;29;20051;-76
2024/02/13 04:05:07;;;;;;;28.55;16.35;;;;;;;;;;4920904;29;20044;-76
2024/02/13 04:07:35;;;;;;;28.77;16.33;;;;;;;;;;4922269;29;20055;-77
2024/02/13 04:10:02;;;;;;;22.27;13.50;;;;;;;;;;4927429;29;20055;-76
2024/02/13 04:12:31;;;;;;;18.65;9.55;;;;;;;;;;4926559;29;20039;-76
2024/02/13 04:14:57;;;;;;;15.55;9.70;;;;;;;;;;4925403;29;20070;-76
2024/02/13 04:17:24;;;;;;;23.17;15.10;;;;;;;;;;4916283;29;20044;-75
2024/02/13 04:19:51;;;;;;;23.42;14.93;;;;;;;;;;4913808;29;20605;-76
2024/02/13 04:22:17;;;;;;;23.35;12.82;;;;;;;;;;4912818;29;20499;-76
2024/02/13 04:24:43;;;;;;;26.60;16.65;;;;;;;;;;4912889;29;20186;-75
2024/02/13 04:27:09;;;;;;;30.20;16.20;;;;;;;;;;4907665;29;20047;-76
2024/02/13 04:29:34;;;;;;;17.35;11.63;;;;;;;;;;4894450;29;20104;-76
2024/02/13 04:32:01;;;;;;;20.45;13.18;;;;;;;;;;4894625;29;20639;-76
2024/02/13 04:34:27;;;;;;;27.35;15.18;;;;;;;;;;4893796;29;20044;-77
2024/02/13 04:36:53;;;;;;;25.75;14.73;;;;;;;;;;4893238;29;20116;-77
2024/02/13 04:39:19;;;;;;;24.73;13.68;;;;;;;;;;4892104;29;20048;-76
2024/02/13 04:41:46;;;;;;;24.25;12.60;;;;;;;;;;4894185;29;20527;-76
2024/02/13 04:44:12;;;;;;;17.83;11.10;;;;;;;;;;4895221;29;20037;-76
2024/02/13 04:46:39;;;;;;;21.27;12.70;;;;;;;;;;4903484;29;20140;-75
2024/02/13 04:49:08;;;;;;;26.52;14.25;;;;;;;;;;4908005;29;20105;-76
2024/02/13 04:51:34;;;;;;;27.50;15.93;;;;;;;;;;4895837;29;20037;-77
2024/02/13 04:54:00;;;;;;;22.15;12.52;;;;;;;;;;4895560;29;20043;-77
2024/02/13 04:56:26;;;;;;;22.67;12.77;;;;;;;;;;4894884;29;20044;-75
2024/02/13 04:58:55;;;;;;;17.50;9.93;;;;;;;;;;4894812;29;20385;-75
2024/02/13 05:01:22;;;;;;;13.60;7.93;;;;;;;;;;4897988;29;20127;-73
2024/02/13 05:08:59;;;;;;;32.08;17.33;;;;;;;;;;4911801;29;20642;-74
2024/02/13 05:11:25;;;;;;;10.73;6.57;;;;;;;;;;4911793;29;20087;-74
2024/02/13 05:13:51;;;;;;;27.80;18.42;;;;;;;;;;4903400;29;20119;-74
2024/02/13 05:16:18;;;;;;;25.55;13.93;;;;;;;;;;4906467;29;20426;-74
2024/02/13 05:18:46;;;;;;;25.95;15.48;;;;;;;;;;4912361;29;20032;-74
2024/02/13 05:21:18;;;;;;;20.55;12.27;;;;;;;;;;4910423;29;20062;-74
2024/02/13 05:23:47;;;;;;;18.45;10.93;;;;;;;;;;4926396;29;20038;-74
2024/02/13 05:26:14;;;;;;;21.45;13.18;;;;;;;;;;4910156;29;20134;-74
2024/02/13 05:28:40;;;;;;;28.00;15.70;;;;;;;;;;4903209;29;20119;-74
2024/02/13 05:31:05;;;;;;;17.63;11.13;;;;;;;;;;4900462;29;20491;-74
2024/02/13 05:33:32;;;;;;;15.98;9.38;;;;;;;;;;4889789;29;20037;-73
2024/02/13 05:35:58;;;;;;;24.05;13.02;;;;;;;;;;4908972;29;20100;-73
2024/02/13 05:38:23;;;;;;;20.67;11.57;;;;;;;;;;4888720;29;20072;-73
2024/02/13 05:40:50;;;;;;;28.67;15.77;;;;;;;;;;4870628;29;20151;-76
2024/02/13 05:43:16;;;;;;;27.08;18.10;;;;;;;;;;4892487;29;20033;-73
2024/02/13 05:45:42;;;;;;;19.63;12.68;;;;;;;;;;4887994;29;20039;-73
2024/02/13 05:48:09;;;;;;;19.77;11.85;;;;;;;;;;4901594;29;20411;-74
2024/02/13 05:50:35;;;;;;;23.83;11.73;;;;;;;;;;4910358;29;20122;-74
2024/02/13 05:53:03;;;;;;;19.67;12.57;;;;;;;;;;4925515;29;20175;-73
2024/02/13 05:55:29;;;;;;;22.60;14.85;;;;;;;;;;4910213;29;20048;-74
2024/02/13 05:57:57;;;;;;;11.25;7.57;;;;;;;;;;4893207;29;20058;-74
2024/02/13 06:00:24;;;;;;;23.25;14.23;;;;;;;;;;4902521;29;20572;-73
2024/02/13 06:02:54;;;;;;;25.58;13.93;;;;;;;;;;4910237;29;20419;-73
2024/02/13 06:05:21;;;;;;;23.00;13.40;;;;;;;;;;4924869;29;20044;-73
2024/02/13 06:07:47;;;;;;;14.73;8.55;;;;;;;;;;4908824;29;20127;-73
2024/02/13 06:10:14;;;;;;;25.15;16.73;;;;;;;;;;4909183;29;20131;-74
2024/02/13 06:12:39;;;;;;;16.45;9.88;;;;;;;;;;4910100;29;20036;-73
2024/02/13 06:15:06;;;;;;;28.40;15.38;;;;;;;;;;4909299;29;20059;-73
2024/02/13 06:17:38;;;;;;;15.70;11.32;;;;;;;;;;4897781;29;20507;-72
2024/02/13 06:20:05;;;;;;;15.70;10.95;;;;;;;;;;4890466;29;20033;-73
2024/02/13 06:22:35;;;;;;;16.95;11.48;;;;;;;;;;4874202;29;20052;-73
2024/02/13 06:25:04;;;;;;;25.73;13.68;;;;;;;;;;4905562;29;20039;-73
2024/02/13 06:27:32;;;;;;;15.48;10.90;;;;;;;;;;4889989;29;20136;-74
2024/02/13 06:29:58;;;;;;;20.65;11.32;;;;;;;;;;4889672;29;20112;-74
2024/02/13 06:32:27;;;;;;;19.35;11.40;;;;;;;;;;4891029;29;20040;-73
2024/02/13 06:34:53;;;;;;;14.77;10.23;;;;;;;;;;4890015;29;20031;-73
2024/02/13 06:37:19;;;;;;;13.35;10.93;;;;;;;;;;4890124;29;20131;-73
2024/02/13 06:39:46;;;;;;;18.05;11.55;;;;;;;;;;4888843;29;20116;-74
2024/02/13 06:42:12;;;;;;;23.08;13.88;;;;;;;;;;4898426;29;20041;-75
2024/02/13 06:44:38;;;;;;;21.52;13.15;;;;;;;;;;4890053;29;20036;-74
2024/02/13 06:47:08;;;;;;;26.80;17.55;;;;;;;;;;4897045;29;20048;-73
2024/02/13 06:49:34;;;;;;;17.45;11.68;;;;;;;;;;4909242;29;20487;-74
2024/02/13 06:52:00;;;;;;;20.10;12.15;;;;;;;;;;4891458;29;20524;-73
2024/02/13 06:54:26;;;;;;;31.02;17.77;;;;;;;;;;4890909;29;20037;-73
2024/02/13 06:56:51;;;;;;;27.60;16.55;;;;;;;;;;4884054;29;20509;-74
2024/02/13 06:59:18;;;;;;;19.48;13.10;;;;;;;;;;4886743;29;20096;-74
2024/02/13 07:01:44;;;;;;;18.48;12.43;;;;;;;;;;4878321;29;20575;-74
2024/02/13 07:04:13;;;;;;;26.83;17.73;;;;;;;;;;4888630;29;20119;-74
2024/02/13 07:06:39;;;;;;;17.58;11.85;;;;;;;;;;4902228;29;20497;-75
2024/02/13 07:09:05;;;;;;;18.88;11.45;;;;;;;;;;4907979;29;20664;-75
2024/02/13 07:11:31;;;;;;;14.82;9.85;;;;;;;;;;4884888;29;20073;-75
2024/02/13 07:14:06;;;;;;;23.25;14.95;;;;;;;;;;4875342;29;20044;-74
2024/02/13 07:16:32;;;;;;;17.30;11.43;;;;;;;;;;4888653;29;20068;-75
2024/02/13 07:18:58;;;;;;;22.05;15.52;;;;;;;;;;4856074;29;20135;-75
2024/02/13 07:21:24;;;;;;;22.17;12.80;;;;;;;;;;4904419;29;20039;-75
2024/02/13 07:23:54;;;;;;;18.58;13.70;;;;;;;;;;4889254;29;20412;-76
2024/02/13 07:26:21;;;;;;;15.02;10.18;;;;;;;;;;4889572;29;20466;-76
2024/02/13 07:28:47;;;;;;;16.63;8.98;;;;;;;;;;4874916;29;20116;-75
2024/02/13 07:31:16;;;;;;;20.50;12.85;;;;;;;;;;4859491;29;20048;-75
2024/02/13 07:33:41;;;;;;;24.88;14.63;;;;;;;;;;4891871;29;20052;-75
2024/02/13 07:36:07;;;;;;;22.80;16.80;;;;;;;;;;4900412;29;20056;-75
2024/02/13 07:38:33;;;;;;;13.63;9.38;;;;;;;;;;4894524;29;20535;-74
2024/02/13 07:41:01;;;;;;;18.10;11.52;;;;;;;;;;4890095;29;20087;-74
2024/02/13 07:43:27;;;;;;;20.85;14.90;;;;;;;;;;4890525;29;20045;-74
2024/02/13 07:45:53;;;;;;;13.73;9.40;;;;;;;;;;4890499;29;20043;-73
2024/02/13 07:48:34;;;;;;;19.25;11.50;;;;;;;;;;4889154;29;20060;-73
2024/02/13 07:51:01;;;;;;;13.07;9.60;;;;;;;;;;4890165;29;20047;-74
2024/02/13 07:53:26;;;;;;;21.40;14.15;;;;;;;;;;4890947;29;20040;-74
2024/02/13 07:55:52;;;;;;;15.38;11.30;;;;;;;;;;4905869;29;20219;-74
2024/02/13 07:58:18;;;;;;;20.77;13.25;;;;;;;;;;4842258;29;20602;-73
2024/02/13 08:00:44;;;;;;;13.73;9.25;;;;;;;;;;4889801;29;20044;-74
2024/02/13 08:03:11;;;;;;;14.00;9.48;;;;;;;;;;4891070;29;20047;-74
2024/02/13 08:05:39;;;;;;;17.02;12.43;;;;;;;;;;4905296;29;20144;-74
2024/02/13 08:08:10;;;;;;;21.65;15.18;;;;;;;;;;4904198;29;20797;-74
2024/02/13 08:10:38;;;;;;;26.05;17.88;;;;;;;;;;4893314;29;20104;-73
2024/02/13 08:13:04;;;;;;;18.75;12.55;;;;;;;;;;4908400;29;20499;-74
2024/02/13 08:15:31;;;;;;;18.15;14.00;;;;;;;;;;4908248;29;20051;-74
2024/02/13 08:17:58;;;;;;;18.77;13.48;;;;;;;;;;4923376;29;20044;-74
2024/02/13 08:20:25;;;;;;;21.52;16.70;;;;;;;;;;4909564;29;20121;-73
2024/02/13 08:22:51;;;;;;;24.05;18.30;;;;;;;;;;4924159;29;20444;-74
2024/02/13 08:25:17;;;;;;;23.95;18.42;;;;;;;;;;4908720;29;20074;-73
2024/02/13 08:27:44;;;;;;;11.90;9.65;;;;;;;;;;4923092;29;20067;-74
2024/02/13 08:30:10;;;;;;;21.40;17.40;;;;;;;;;;4909737;29;20055;-74
2024/02/13 08:32:41;;;;;;;16.05;11.60;;;;;;;;;;4909389;29;20046;-73
2024/02/13 08:35:08;;;;;;;13.60;9.73;;;;;;;;;;4909752;29;20052;-74
2024/02/13 08:37:36;;;;;;;15.07;9.98;;;;;;;;;;4912571;29;20542;-73
2024/02/13 08:40:02;;;;;;;24.67;15.05;;;;;;;;;;4889343;29;20131;-74
2024/02/13 08:42:34;;;;;;;25.73;18.35;;;;;;;;;;4890645;29;20127;-74
2024/02/13 08:45:03;;;;;;;21.17;16.00;;;;;;;;;;4890694;29;20472;-74
2024/02/13 08:47:36;;;;;;;18.00;13.18;;;;;;;;;;4889832;29;20040;-75
2024/02/13 08:50:02;;;;;;;21.48;14.10;;;;;;;;;;4890656;29;20051;-74
2024/02/13 08:52:31;;;;;;;18.45;11.63;;;;;;;;;;4890468;29;20100;-74
2024/02/13 08:54:57;;;;;;;19.38;14.60;;;;;;;;;;4907824;29;20036;-74
2024/02/13 08:57:23;;;;;;;14.25;10.00;;;;;;;;;;4893072;29;20140;-74
2024/02/13 08:59:49;;;;;;;23.83;17.10;;;;;;;;;;4894290;29;20067;-74
2024/02/13 09:02:15;;;;;;;16.25;12.80;;;;;;;;;;4894604;29;20117;-75
2024/02/13 09:04:41;;;;;;;21.10;13.43;;;;;;;;;;4893420;29;20029;-74
2024/02/13 09:07:07;;;;;;;18.42;13.98;;;;;;;;;;4892107;29;20131;-75
2024/02/13 09:09:34;;;;;;;15.65;12.07;;;;;;;;;;4893821;29;20123;-75
2024/02/13 09:12:01;;;;;;;28.13;18.67;;;;;;;;;;4893970;29;20048;-75
2024/02/13 09:14:27;;;;;;;16.55;11.50;;;;;;;;;;4892222;29;20198;-75
2024/02/13 09:16:56;;;;;;;18.50;13.63;;;;;;;;;;4891678;29;20510;-75
2024/02/13 09:19:25;;;;;;;28.15;18.15;;;;;;;;;;4892453;29;20040;-75
2024/02/13 09:21:51;;;;;;;25.25;17.50;;;;;;;;;;4894189;29;20025;-75
2024/02/13 09:24:17;;;;;;;18.33;12.10;;;;;;;;;;4878458;29;20036;-74
2024/02/13 09:26:43;;;;;;;21.98;14.48;;;;;;;;;;4897286;29;20060;-75
2024/02/13 09:29:09;;;;;;;25.38;18.77;;;;;;;;;;4912690;29;20063;-75
2024/02/13 09:31:35;;;;;;;20.65;14.75;;;;;;;;;;4911131;29;20490;-76
2024/02/13 09:34:01;;;;;;;22.58;15.27;;;;;;;;;;4912418;29;20127;-74
2024/02/13 09:36:27;;;;;;;23.60;16.92;;;;;;;;;;4911315;29;20059;-76
2024/02/13 09:38:53;;;;;;;19.65;13.05;;;;;;;;;;4926911;29;20036;-75
2024/02/13 09:41:19;;;;;;;24.90;15.90;;;;;;;;;;4912818;29;20056;-75
2024/02/13 09:43:45;;;;;;;20.13;13.18;;;;;;;;;;4911150;29;20028;-76
2024/02/13 09:46:13;;;;;;;25.65;17.58;;;;;;;;;;4927315;29;20649;-75
2024/02/13 09:48:38;;;;;;;26.10;17.25;;;;;;;;;;4909675;29;20586;-75
2024/02/13 09:51:08;;;;;;;21.90;14.02;;;;;;;;;;4911274;29;20036;-75
2024/02/13 09:53:34;;;;;;;31.35;21.35;;;;;;;;;;4911868;29;20550;-75
2024/02/13 09:56:00;;;;;;;23.90;12.65;;;;;;;;;;4926838;29;20400;-75
2024/02/13 09:58:26;;;;;;;16.42;12.43;;;;;;;;;;4909606;29;20046;-75
2024/02/13 10:00:52;;;;;;;19.35;12.85;;;;;;;;;;4907661;29;20119;-75
2024/02/13 10:03:18;;;;;;;28.27;18.70;;;;;;;;;;4893285;29;20100;-75
2024/02/13 10:05:44;;;;;;;25.42;15.57;;;;;;;;;;4891012;29;20440;-75
2024/02/13 10:08:11;;;;;;;31.02;22.23;;;;;;;;;;4891152;29;20052;-74
2024/02/13 10:10:38;;;;;;;26.63;15.10;;;;;;;;;;4891593;29;20285;-74
2024/02/13 10:13:04;;;;;;;29.85;17.92;;;;;;;;;;4893204;29;20036;-75
2024/02/13 10:15:38;;;;;;;25.00;15.05;;;;;;;;;;4892458;29;20100;-74
2024/02/13 10:18:11;;;;;;;24.10;13.80;;;;;;;;;;4877061;29;20064;-74
2024/02/13 10:20:38;;;;;;;34.72;20.02;;;;;;;;;;4872512;29;20648;-74
2024/02/13 10:23:04;;;;;;;26.20;16.13;;;;;;;;;;4874347;29;20048;-74
2024/02/13 10:25:33;;;;;;;27.25;18.60;;;;;;;;;;4879935;29;20500;-74
2024/02/13 10:28:00;;;;;;;16.77;10.45;;;;;;;;;;4893120;29;20048;-73
2024/02/13 10:30:28;;;;;;;12.05;8.70;;;;;;;;;;4892332;29;20044;-74
2024/02/13 10:32:55;;;;;;;16.88;11.80;;;;;;;;;;4892555;29;20044;-74
2024/02/13 10:35:21;;;;;;;22.88;14.73;;;;;;;;;;4891011;29;20350;-74
2024/02/13 10:37:48;;;;;;;27.92;18.55;;;;;;;;;;4891439;29;20053;-74
2024/02/13 10:40:26;;;;;;;25.23;15.80;;;;;;;;;;4892364;29;20212;-75
2024/02/13 10:42:55;;;;;;;27.42;18.25;;;;;;;;;;4892311;29;20530;-74
2024/02/13 10:45:23;;;;;;;31.77;19.52;;;;;;;;;;4890933;29;20052;-75
2024/02/13 10:48:09;;;;;;;23.73;13.60;;;;;;;;;;4890457;29;20611;-73
2024/02/13 10:50:36;;;;;;;27.85;18.52;;;;;;;;;;4905998;29;20131;-74
2024/02/13 10:53:03;;;;;;;35.13;24.08;;;;;;;;;;4891987;29;20540;-74
2024/02/13 10:55:30;;;;;;;29.70;20.17;;;;;;;;;;4874941;29;20164;-75
2024/02/13 10:57:58;;;;;;;30.50;16.42;;;;;;;;;;4891183;29;20078;-74
2024/02/13 11:00:25;;;;;;;23.73;15.02;;;;;;;;;;4906123;29;20119;-73
2024/02/13 11:02:55;;;;;;;31.75;20.00;;;;;;;;;;4909064;29;20051;-73
2024/02/13 11:05:25;;;;;;;30.17;19.17;;;;;;;;;;4909651;29;20699;-74
2024/02/13 11:07:51;;;;;;;29.02;21.33;;;;;;;;;;4909503;29;20044;-74
2024/02/13 11:10:36;;;;;;;30.75;22.15;;;;;;;;;;4895530;29;20051;-74
2024/02/13 11:13:09;;;;;;;22.90;15.05;;;;;;;;;;4925210;29;20426;-74
2024/02/13 11:15:41;;;;;;;24.38;16.42;;;;;;;;;;4908688;29;20075;-74
2024/02/13 11:18:28;;;;;;;;;;;;;;;;;;4903797;29;20203;-74
2024/02/13 11:20:59;;;;;;;28.95;18.77;;;;;;;;;;4891662;29;19955;-74
2024/02/13 11:23:57;;;;;;;23.70;14.43;;;;;;;;;;4902852;29;20051;-74
2024/02/13 11:26:25;;;;;;;21.63;13.70;;;;;;;;;;4890997;29;20063;-74
2024/02/13 11:28:52;;;;;;;33.97;22.70;;;;;;;;;;4891342;29;20061;-74
2024/02/13 11:31:18;;;;;;;34.28;22.17;;;;;;;;;;4890271;29;20516;-74
2024/02/13 11:34:22;;;;;;;18.13;12.45;;;;;;;;;;4891245;29;20047;-73
2024/02/13 11:36:59;;;;;;;16.42;12.02;;;;;;;;;;4906898;29;20067;-73
2024/02/13 11:39:26;;;;;;;18.08;10.48;;;;;;;;;;4905591;29;20048;-74
2024/02/13 11:41:56;;;;;;;26.73;17.83;;;;;;;;;;4891288;29;20033;-74
2024/02/13 11:44:22;;;;;;;34.22;20.20;;;;;;;;;;4907475;29;20051;-74
2024/02/13 11:46:52;;;;;;;24.30;15.65;;;;;;;;;;4909512;29;20048;-74
2024/02/13 11:49:18;;;;;;;24.83;17.23;;;;;;;;;;4925278;29;20028;-74
2024/02/13 11:51:44;;;;;;;24.95;15.18;;;;;;;;;;4910431;29;20391;-74
2024/02/13 11:54:10;;;;;;;23.77;19.00;;;;;;;;;;4925056;29;20504;-74
2024/02/13 11:56:36;;;;;;;36.70;24.08;;;;;;;;;;4908218;29;20048;-74
2024/02/13 11:59:08;;;;;;;37.15;20.50;;;;;;;;;;4911411;29;20028;-74
2024/02/13 12:01:38;;;;;;;38.42;20.98;;;;;;;;;;4909803;29;20393;-74
2024/02/13 12:04:26;;;;;;;34.67;22.85;;;;;;;;;;4922453;29;20502;-75
2024/02/13 12:06:53;;;;;;;39.15;25.05;;;;;;;;;;4904930;29;20040;-75
2024/02/13 12:09:19;;;;;;;30.42;18.55;;;;;;;;;;4893029;29;20067;-73
2024/02/13 12:11:45;;;;;;;27.23;17.23;;;;;;;;;;4892523;29;20058;-75
2024/02/13 12:14:13;;;;;;;34.00;24.67;;;;;;;;;;4893880;29;20480;-74
2024/02/13 12:16:39;;;;;;;31.27;21.08;;;;;;;;;;4895079;28;20052;-74
2024/02/13 12:19:10;;;;;;;29.35;16.70;;;;;;;;;;4902939;29;20033;-74
2024/02/13 12:21:55;;;;;;;24.75;15.45;;;;;;;;;;4915050;29;20043;-74
2024/02/13 12:24:21;;;;;;;23.67;15.13;;;;;;;;;;4903157;29;20049;-74
2024/02/13 12:26:47;;;;;;;21.55;12.13;;;;;;;;;;4901630;29;20320;-74
2024/02/13 12:29:19;;;;;;;29.73;19.63;;;;;;;;;;4900782;29;20047;-74
2024/02/13 12:31:45;;;;;;;16.20;9.43;;;;;;;;;;4914400;29;20044;-74
2024/02/13 12:34:13;;;;;;;13.18;10.40;;;;;;;;;;4899038;29;20082;-74
2024/02/13 12:36:39;;;;;;;21.33;14.60;;;;;;;;;;4898567;29;20142;-74
2024/02/13 12:39:16;;;;;;;23.17;16.00;;;;;;;;;;4914768;29;20040;-74
2024/02/13 12:41:45;;;;;;;24.27;18.15;;;;;;;;;;4927355;29;20036;-74
2024/02/13 12:44:13;;;;;;;19.02;12.63;;;;;;;;;;4914512;29;20036;-74
2024/02/13 12:46:40;;;;;;;23.90;16.40;;;;;;;;;;4911905;29;20043;-74
2024/02/13 12:49:06;;;;;;;18.88;12.63;;;;;;;;;;4913748;29;20103;-74
2024/02/13 12:51:33;;;;;;;25.45;14.30;;;;;;;;;;4913148;29;20422;-75
2024/02/13 12:54:04;;;;;;;19.10;14.82;;;;;;;;;;4913026;29;20036;-74
2024/02/13 12:56:31;;;;;;;13.07;9.82;;;;;;;;;;4911754;29;20047;-74
2024/02/13 12:58:57;;;;;;;17.38;9.05;;;;;;;;;;4912895;29;20067;-74
2024/02/13 13:01:24;;;;;;;11.63;9.07;;;;;;;;;;4913880;29;20043;-74
2024/02/13 13:03:50;;;;;;;24.85;17.00;;;;;;;;;;4913268;29;20184;-74
2024/02/13 13:06:19;;;;;;;18.15;14.18;;;;;;;;;;4913603;29;20758;-75
2024/02/13 13:08:47;;;;;;;15.43;11.70;;;;;;;;;;4912693;29;20044;-74
2024/02/13 13:11:13;;;;;;;23.65;14.68;;;;;;;;;;4914742;29;20047;-74
2024/02/13 13:13:40;;;;;;;16.38;10.55;;;;;;;;;;4917096;29;20059;-73
2024/02/13 13:16:07;;;;;;;19.90;13.38;;;;;;;;;;4920197;29;20056;-75
2024/02/13 13:18:34;;;;;;;16.90;12.18;;;;;;;;;;4912213;29;20044;-74
2024/02/13 13:21:01;;;;;;;22.80;13.38;;;;;;;;;;4911772;29;20122;-74
2024/02/13 13:23:28;;;;;;;21.33;16.58;;;;;;;;;;4913333;29;20100;-74
2024/02/13 13:25:54;;;;;;;16.67;12.60;;;;;;;;;;4911544;29;20036;-74
2024/02/13 13:28:22;;;;;;;21.15;15.70;;;;;;;;;;4912263;29;20044;-74
2024/02/13 13:30:57;;;;;;;16.90;10.15;;;;;;;;;;4926931;29;20055;-74
2024/02/13 13:33:27;;;;;;;12.13;9.93;;;;;;;;;;4895930;29;20036;-73
2024/02/13 13:35:53;;;;;;;18.77;14.35;;;;;;;;;;4911961;29;20048;-74
2024/02/13 13:38:21;;;;;;;14.07;8.88;;;;;;;;;;4895822;29;20112;-75
2024/02/13 13:40:48;;;;;;;13.65;11.93;;;;;;;;;;4905798;29;20080;-74
2024/02/13 13:43:16;;;;;;;21.02;14.57;;;;;;;;;;4893614;29;20092;-73
2024/02/13 13:45:54;;;;;;;20.65;13.35;;;;;;;;;;4860944;29;20135;-74
2024/02/13 13:48:21;;;;;;;20.17;10.68;;;;;;;;;;4921424;29;20075;-74
2024/02/13 13:50:47;;;;;;;12.80;8.93;;;;;;;;;;4912197;29;20099;-74
2024/02/13 13:53:13;;;;;;;7.85;7.10;;;;;;;;;;4912757;29;20095;-74
2024/02/13 13:55:39;;;;;;;11.25;7.72;;;;;;;;;;4911773;29;20036;-75
2024/02/13 13:58:07;;;;;;;16.13;13.02;;;;;;;;;;4896382;29;20148;-75
2024/02/13 14:00:33;;;;;;;13.48;11.55;;;;;;;;;;4894685;29;20526;-74
2024/02/13 14:03:00;;;;;;;7.40;6.65;;;;;;;;;;4893544;29;20403;-74
2024/02/13 14:05:37;;;;;;;12.68;7.60;;;;;;;;;;4876247;29;20136;-74
2024/02/13 14:08:04;;;;;;;15.80;12.35;;;;;;;;;;4891853;29;20060;-74
2024/02/13 14:10:34;;;;;;;16.27;12.32;;;;;;;;;;4892920;29;20084;-73
2024/02/13 14:13:03;;;;;;;10.32;8.68;;;;;;;;;;4891169;29;20343;-74
2024/02/13 14:15:31;;;;;;;7.93;7.13;;;;;;;;;;4876027;29;20127;-74
2024/02/13 14:18:00;;;;;;;23.17;12.48;;;;;;;;;;4874979;29;20051;-74
2024/02/13 14:20:34;;;;;;;19.73;14.13;;;;;;;;;;4892993;29;20103;-73
2024/02/13 14:23:01;;;;;;;14.77;10.55;;;;;;;;;;4892370;29;20040;-73
2024/02/13 14:25:27;;;;;;;14.90;10.52;;;;;;;;;;4907057;29;20100;-73
2024/02/13 14:27:53;;;;;;;11.27;7.45;;;;;;;;;;4903873;29;20052;-74
2024/02/13 14:30:20;;;;;;;6.25;5.72;;;;;;;;;;4910222;29;20032;-73